SWA3680 KONT-KSMF
Flight info
| Callsign | SWA3680 |
|---|---|
| Flight time | 1h 4m |
| Altitude | 32000 |
| Route | SNSHN5 EHF NURAY SUUTR4 |
| Aircraft | B738/M-SDE2E3FGHIRWXY/LB1 |
Departure
| Time | 2026-05-06 03:04 |
|---|---|
| Airport | Ontario International Airport (KONT) |
Arrival
| Time | 2026-05-06 04:09 |
|---|---|
| Airport | Sacramento International Airport (KSMF) |
| Time | Latitude | Longitude | Altitude | Speed | Heading |
|---|---|---|---|---|---|
| 2026-05-06 02:52 | 34.05982 | -117.58924 | 942 ft | 0 kts | 0° |
| 2026-05-06 02:56 | 34.05980 | -117.58924 | 944 ft | 2 kts | 0° |
| 2026-05-06 02:56 | 34.05962 | -117.58924 | 943 ft | 3 kts | 0° |
| 2026-05-06 02:57 | 34.05944 | -117.58924 | 944 ft | 3 kts | 0° |
| 2026-05-06 02:57 | 34.05926 | -117.58925 | 943 ft | 3 kts | 0° |
| 2026-05-06 02:57 | 34.05915 | -117.58925 | 943 ft | 0 kts | 0° |
| 2026-05-06 02:59 | 34.05916 | -117.58923 | 943 ft | 1 kts | 18° |
| 2026-05-06 02:59 | 34.05917 | -117.58917 | 943 ft | 1 kts | 77° |
| 2026-05-06 03:00 | 34.05916 | -117.58897 | 943 ft | 7 kts | 99° |
| 2026-05-06 03:00 | 34.05903 | -117.58814 | 943 ft | 13 kts | 99° |
| 2026-05-06 03:00 | 34.05896 | -117.58680 | 944 ft | 20 kts | 92° |
| 2026-05-06 03:00 | 34.05895 | -117.58492 | 944 ft | 23 kts | 90° |
| 2026-05-06 03:01 | 34.05893 | -117.58315 | 944 ft | 7 kts | 108° |
| 2026-05-06 03:01 | 34.05855 | -117.58278 | 944 ft | 7 kts | 166° |
| 2026-05-06 03:01 | 34.05801 | -117.58275 | 944 ft | 8 kts | 174° |
| 2026-05-06 03:01 | 34.05781 | -117.58273 | 944 ft | 0 kts | 177° |
| 2026-05-06 03:03 | 34.05780 | -117.58273 | 944 ft | 1 kts | 177° |
| 2026-05-06 03:03 | 34.05743 | -117.58271 | 944 ft | 10 kts | 178° |
| 2026-05-06 03:03 | 34.05692 | -117.58324 | 945 ft | 11 kts | 257° |
| 2026-05-06 03:04 | 34.05689 | -117.58415 | 946 ft | 17 kts | 269° |
| 2026-05-06 03:04 | 34.05691 | -117.58964 | 946 ft | 112 kts | 269° |
| 2026-05-06 03:04 | 34.05687 | -117.60234 | 1021 ft | 184 kts | 269° |
| 2026-05-06 03:04 | 34.05691 | -117.61869 | 1808 ft | 200 kts | 269° |
| 2026-05-06 03:05 | 34.05710 | -117.63650 | 2495 ft | 227 kts | 269° |
| 2026-05-06 03:05 | 34.05747 | -117.65641 | 3229 ft | 236 kts | 270° |
| 2026-05-06 03:05 | 34.05794 | -117.67594 | 4150 ft | 235 kts | 271° |
| 2026-05-06 03:05 | 34.05844 | -117.69577 | 4883 ft | 245 kts | 272° |
| 2026-05-06 03:06 | 34.06072 | -117.71670 | 5569 ft | 256 kts | 287° |
| 2026-05-06 03:06 | 34.06612 | -117.73749 | 6508 ft | 265 kts | 288° |
| 2026-05-06 03:06 | 34.07152 | -117.75903 | 7409 ft | 267 kts | 288° |
| 2026-05-06 03:06 | 34.07691 | -117.78064 | 7831 ft | 270 kts | 292° |
| 2026-05-06 03:07 | 34.08740 | -117.79944 | 8450 ft | 274 kts | 316° |
| 2026-05-06 03:07 | 34.10047 | -117.81629 | 9466 ft | 278 kts | 315° |
| 2026-05-06 03:07 | 34.11374 | -117.83383 | 10295 ft | 286 kts | 314° |
| 2026-05-06 03:07 | 34.12705 | -117.85265 | 10626 ft | 314 kts | 309° |
| 2026-05-06 03:08 | 34.14042 | -117.87488 | 10873 ft | 340 kts | 307° |
| 2026-05-06 03:08 | 34.15412 | -117.89877 | 11481 ft | 350 kts | 307° |
| 2026-05-06 03:08 | 34.16803 | -117.92304 | 12312 ft | 353 kts | 307° |
| 2026-05-06 03:08 | 34.18217 | -117.94754 | 13156 ft | 358 kts | 307° |
| 2026-05-06 03:09 | 34.19656 | -117.97229 | 13980 ft | 363 kts | 307° |
| 2026-05-06 03:09 | 34.21124 | -117.99736 | 14737 ft | 367 kts | 307° |
| 2026-05-06 03:09 | 34.22618 | -118.02244 | 15469 ft | 369 kts | 308° |
| 2026-05-06 03:09 | 34.24122 | -118.04786 | 16190 ft | 375 kts | 307° |
| 2026-05-06 03:10 | 34.25630 | -118.07382 | 16899 ft | 380 kts | 307° |
| 2026-05-06 03:10 | 34.27166 | -118.10016 | 17561 ft | 386 kts | 307° |
| 2026-05-06 03:10 | 34.28779 | -118.12635 | 18286 ft | 390 kts | 311° |
| 2026-05-06 03:10 | 34.30579 | -118.15117 | 18909 ft | 394 kts | 315° |
| 2026-05-06 03:11 | 34.32457 | -118.17552 | 19520 ft | 398 kts | 315° |
| 2026-05-06 03:11 | 34.34363 | -118.20003 | 20145 ft | 402 kts | 315° |
| 2026-05-06 03:11 | 34.36280 | -118.22491 | 20785 ft | 405 kts | 315° |
| 2026-05-06 03:11 | 34.38201 | -118.25016 | 21379 ft | 410 kts | 315° |
| 2026-05-06 03:12 | 34.40098 | -118.27608 | 22094 ft | 413 kts | 312° |
| 2026-05-06 03:12 | 34.42063 | -118.30160 | 22592 ft | 416 kts | 322° |
| 2026-05-06 03:12 | 34.44359 | -118.32302 | 23149 ft | 417 kts | 330° |
| 2026-05-06 03:12 | 34.46825 | -118.34155 | 23710 ft | 419 kts | 332° |
| 2026-05-06 03:13 | 34.48490 | -118.35366 | 24022 ft | 420 kts | 334° |
| 2026-05-06 03:13 | 34.51013 | -118.37183 | 24466 ft | 424 kts | 334° |
| 2026-05-06 03:13 | 34.53561 | -118.39020 | 24916 ft | 428 kts | 334° |
| 2026-05-06 03:13 | 34.56956 | -118.41483 | 25538 ft | 431 kts | 334° |
| 2026-05-06 03:14 | 34.59537 | -118.43365 | 25993 ft | 434 kts | 335° |
| 2026-05-06 03:14 | 34.61285 | -118.44647 | 26293 ft | 436 kts | 335° |
| 2026-05-06 03:14 | 34.63891 | -118.46568 | 26737 ft | 439 kts | 335° |
| 2026-05-06 03:14 | 34.66508 | -118.48503 | 27166 ft | 441 kts | 335° |
| 2026-05-06 03:15 | 34.69107 | -118.50421 | 27581 ft | 444 kts | 336° |
| 2026-05-06 03:15 | 34.71752 | -118.52369 | 28030 ft | 446 kts | 336° |
| 2026-05-06 03:15 | 34.74413 | -118.54330 | 28457 ft | 448 kts | 337° |
| 2026-05-06 03:15 | 34.77087 | -118.56305 | 28858 ft | 451 kts | 337° |
| 2026-05-06 03:16 | 34.79773 | -118.58292 | 29285 ft | 453 kts | 337° |
| 2026-05-06 03:16 | 34.82461 | -118.60284 | 29856 ft | 451 kts | 338° |
| 2026-05-06 03:16 | 34.85128 | -118.62267 | 30428 ft | 447 kts | 337° |
| 2026-05-06 03:16 | 34.87778 | -118.64237 | 30900 ft | 446 kts | 337° |
| 2026-05-06 03:17 | 34.90423 | -118.66204 | 31316 ft | 445 kts | 336° |
| 2026-05-06 03:17 | 34.93057 | -118.68160 | 31803 ft | 442 kts | 336° |
| 2026-05-06 03:17 | 34.95687 | -118.70118 | 32041 ft | 443 kts | 335° |
| 2026-05-06 03:18 | 35.00958 | -118.74045 | 32040 ft | 442 kts | 336° |
| 2026-05-06 03:18 | 35.06197 | -118.77945 | 32041 ft | 440 kts | 336° |
| 2026-05-06 03:19 | 35.11414 | -118.81838 | 32047 ft | 439 kts | 336° |
| 2026-05-06 03:19 | 35.16622 | -118.85729 | 32047 ft | 439 kts | 336° |
| 2026-05-06 03:20 | 35.24456 | -118.91599 | 32023 ft | 440 kts | 337° |
| 2026-05-06 03:20 | 35.29679 | -118.95520 | 32039 ft | 441 kts | 337° |
| 2026-05-06 03:21 | 35.34912 | -118.99453 | 32042 ft | 441 kts | 337° |
| 2026-05-06 03:21 | 35.40139 | -119.03390 | 32046 ft | 441 kts | 337° |
| 2026-05-06 03:22 | 35.45379 | -119.07341 | 32019 ft | 441 kts | 337° |
| 2026-05-06 03:22 | 35.50644 | -119.11015 | 32029 ft | 433 kts | 344° |
| 2026-05-06 03:23 | 35.56146 | -119.13951 | 32029 ft | 430 kts | 346° |
| 2026-05-06 03:23 | 35.61659 | -119.16809 | 32010 ft | 430 kts | 346° |
| 2026-05-06 03:24 | 35.67155 | -119.19716 | 32020 ft | 430 kts | 345° |
| 2026-05-06 03:24 | 35.72642 | -119.22660 | 32027 ft | 430 kts | 345° |
| 2026-05-06 03:25 | 35.78121 | -119.25616 | 32013 ft | 430 kts | 345° |
| 2026-05-06 03:25 | 35.83598 | -119.28576 | 32015 ft | 429 kts | 345° |
| 2026-05-06 03:26 | 35.89070 | -119.31537 | 32034 ft | 429 kts | 345° |
| 2026-05-06 03:26 | 35.94539 | -119.34499 | 32036 ft | 429 kts | 345° |
| 2026-05-06 03:27 | 36.00006 | -119.37465 | 32026 ft | 429 kts | 345° |
| 2026-05-06 03:27 | 36.05476 | -119.40438 | 32034 ft | 429 kts | 345° |
| 2026-05-06 03:28 | 36.10938 | -119.43411 | 32031 ft | 429 kts | 345° |
| 2026-05-06 03:28 | 36.16366 | -119.46369 | 32037 ft | 429 kts | 345° |
| 2026-05-06 03:29 | 36.21834 | -119.49354 | 32031 ft | 428 kts | 344° |
| 2026-05-06 03:29 | 36.27285 | -119.52335 | 32047 ft | 428 kts | 344° |
| 2026-05-06 03:30 | 36.32739 | -119.55321 | 32034 ft | 427 kts | 344° |
| 2026-05-06 03:30 | 36.38177 | -119.58304 | 32038 ft | 427 kts | 344° |
| 2026-05-06 03:31 | 36.43608 | -119.61287 | 32048 ft | 428 kts | 344° |
| 2026-05-06 03:31 | 36.49129 | -119.64317 | 32055 ft | 440 kts | 344° |
| 2026-05-06 03:32 | 36.54775 | -119.67432 | 32025 ft | 444 kts | 343° |
| 2026-05-06 03:32 | 36.60396 | -119.70593 | 32042 ft | 445 kts | 340° |
| 2026-05-06 03:33 | 36.65742 | -119.74611 | 32056 ft | 451 kts | 334° |
| 2026-05-06 03:33 | 36.70969 | -119.78937 | 32054 ft | 451 kts | 334° |
| 2026-05-06 03:34 | 36.76211 | -119.83201 | 32041 ft | 450 kts | 335° |
| 2026-05-06 03:34 | 36.81444 | -119.87374 | 32054 ft | 449 kts | 335° |
| 2026-05-06 03:35 | 36.86716 | -119.91554 | 32053 ft | 449 kts | 335° |
| 2026-05-06 03:35 | 36.91992 | -119.95744 | 32036 ft | 449 kts | 335° |
| 2026-05-06 03:36 | 36.97266 | -119.99944 | 32052 ft | 449 kts | 335° |
| 2026-05-06 03:36 | 37.02540 | -120.04152 | 32049 ft | 450 kts | 335° |
| 2026-05-06 03:37 | 37.07813 | -120.08367 | 32031 ft | 448 kts | 335° |
| 2026-05-06 03:37 | 37.12970 | -120.12505 | 31588 ft | 436 kts | 335° |
| 2026-05-06 03:38 | 37.15510 | -120.14542 | 31002 ft | 431 kts | 335° |
| 2026-05-06 03:38 | 37.18039 | -120.16567 | 30306 ft | 431 kts | 335° |
| 2026-05-06 03:38 | 37.20562 | -120.18590 | 29652 ft | 429 kts | 334° |
| 2026-05-06 03:38 | 37.23065 | -120.20601 | 29058 ft | 424 kts | 334° |
| 2026-05-06 03:39 | 37.25534 | -120.22587 | 28506 ft | 419 kts | 334° |
| 2026-05-06 03:39 | 37.27974 | -120.24552 | 27972 ft | 414 kts | 334° |
| 2026-05-06 03:39 | 37.30363 | -120.26442 | 27463 ft | 409 kts | 335° |
| 2026-05-06 03:39 | 37.32768 | -120.28311 | 26970 ft | 406 kts | 335° |
| 2026-05-06 03:40 | 37.35192 | -120.30183 | 26483 ft | 411 kts | 335° |
| 2026-05-06 03:40 | 37.37643 | -120.32079 | 25983 ft | 414 kts | 334° |
| 2026-05-06 03:40 | 37.40084 | -120.33980 | 25472 ft | 411 kts | 334° |
| 2026-05-06 03:40 | 37.42503 | -120.35870 | 24962 ft | 407 kts | 334° |
| 2026-05-06 03:41 | 37.44900 | -120.37745 | 24473 ft | 403 kts | 333° |
| 2026-05-06 03:41 | 37.47266 | -120.39611 | 23994 ft | 400 kts | 332° |
| 2026-05-06 03:41 | 37.49509 | -120.41687 | 23466 ft | 400 kts | 327° |
| 2026-05-06 03:41 | 37.51649 | -120.43898 | 22918 ft | 396 kts | 325° |
| 2026-05-06 03:42 | 37.53757 | -120.46113 | 22403 ft | 391 kts | 326° |
| 2026-05-06 03:42 | 37.55851 | -120.48271 | 21917 ft | 386 kts | 326° |
| 2026-05-06 03:42 | 37.57934 | -120.50379 | 21442 ft | 382 kts | 326° |
| 2026-05-06 03:42 | 37.59998 | -120.52452 | 20979 ft | 377 kts | 326° |
| 2026-05-06 03:43 | 37.62037 | -120.54493 | 20614 ft | 371 kts | 326° |
| 2026-05-06 03:43 | 37.64040 | -120.56498 | 20253 ft | 365 kts | 326° |
| 2026-05-06 03:43 | 37.66022 | -120.58482 | 19901 ft | 362 kts | 326° |
| 2026-05-06 03:43 | 37.67985 | -120.60448 | 19545 ft | 359 kts | 326° |
| 2026-05-06 03:44 | 37.69930 | -120.62399 | 19197 ft | 356 kts | 326° |
| 2026-05-06 03:44 | 37.71863 | -120.64340 | 18851 ft | 354 kts | 326° |
| 2026-05-06 03:44 | 37.73786 | -120.66272 | 18503 ft | 352 kts | 326° |
| 2026-05-06 03:44 | 37.75700 | -120.68197 | 18117 ft | 353 kts | 326° |
| 2026-05-06 03:45 | 37.77630 | -120.70138 | 17740 ft | 356 kts | 326° |
| 2026-05-06 03:45 | 37.79562 | -120.72084 | 17375 ft | 355 kts | 326° |
| 2026-05-06 03:45 | 37.81487 | -120.74026 | 16998 ft | 353 kts | 326° |
| 2026-05-06 03:45 | 37.83401 | -120.75957 | 16623 ft | 351 kts | 326° |
| 2026-05-06 03:46 | 37.85302 | -120.77876 | 16271 ft | 349 kts | 326° |
| 2026-05-06 03:46 | 37.87194 | -120.79790 | 15917 ft | 347 kts | 326° |
| 2026-05-06 03:46 | 37.89051 | -120.81675 | 15576 ft | 346 kts | 326° |
| 2026-05-06 03:46 | 37.90920 | -120.83575 | 15230 ft | 344 kts | 326° |
| 2026-05-06 03:47 | 37.92783 | -120.85470 | 14893 ft | 343 kts | 326° |
| 2026-05-06 03:47 | 37.94640 | -120.87360 | 14557 ft | 341 kts | 326° |
| 2026-05-06 03:47 | 37.96488 | -120.89242 | 14223 ft | 340 kts | 326° |
| 2026-05-06 03:47 | 37.98329 | -120.91117 | 13890 ft | 339 kts | 326° |
| 2026-05-06 03:48 | 38.00165 | -120.92989 | 13516 ft | 338 kts | 326° |
| 2026-05-06 03:48 | 38.01991 | -120.94852 | 13158 ft | 336 kts | 326° |
| 2026-05-06 03:48 | 38.03807 | -120.96706 | 12808 ft | 334 kts | 325° |
| 2026-05-06 03:48 | 38.05613 | -120.98550 | 12469 ft | 332 kts | 325° |
| 2026-05-06 03:49 | 38.07404 | -121.00391 | 12138 ft | 331 kts | 323° |
| 2026-05-06 03:49 | 38.09033 | -121.02466 | 11808 ft | 333 kts | 315° |
| 2026-05-06 03:49 | 38.10518 | -121.04712 | 11485 ft | 332 kts | 313° |
| 2026-05-06 03:49 | 38.11978 | -121.06979 | 11151 ft | 330 kts | 313° |
| 2026-05-06 03:50 | 38.13431 | -121.09205 | 10818 ft | 325 kts | 314° |
| 2026-05-06 03:50 | 38.14880 | -121.11377 | 10504 ft | 320 kts | 314° |
| 2026-05-06 03:50 | 38.16316 | -121.13507 | 10192 ft | 315 kts | 314° |
| 2026-05-06 03:50 | 38.17733 | -121.15603 | 9930 ft | 309 kts | 314° |
| 2026-05-06 03:51 | 38.19090 | -121.17610 | 9924 ft | 288 kts | 315° |
| 2026-05-06 03:51 | 38.20360 | -121.19482 | 9841 ft | 274 kts | 315° |
| 2026-05-06 03:51 | 38.21601 | -121.21303 | 9661 ft | 271 kts | 315° |
| 2026-05-06 03:51 | 38.22905 | -121.23040 | 9516 ft | 274 kts | 319° |
| 2026-05-06 03:52 | 38.24280 | -121.24767 | 9374 ft | 281 kts | 319° |
| 2026-05-06 03:52 | 38.25688 | -121.26522 | 9212 ft | 286 kts | 319° |
| 2026-05-06 03:52 | 38.27109 | -121.28298 | 9032 ft | 286 kts | 319° |
| 2026-05-06 03:52 | 38.28532 | -121.30086 | 8802 ft | 288 kts | 318° |
| 2026-05-06 03:53 | 38.29948 | -121.31871 | 8603 ft | 285 kts | 318° |
| 2026-05-06 03:53 | 38.31343 | -121.33636 | 8397 ft | 280 kts | 318° |
| 2026-05-06 03:53 | 38.32710 | -121.35368 | 8196 ft | 276 kts | 318° |
| 2026-05-06 03:53 | 38.34072 | -121.37095 | 8002 ft | 276 kts | 317° |
| 2026-05-06 03:54 | 38.35435 | -121.38822 | 7801 ft | 276 kts | 317° |
| 2026-05-06 03:54 | 38.36793 | -121.40548 | 7617 ft | 276 kts | 317° |
| 2026-05-06 03:54 | 38.38149 | -121.42272 | 7420 ft | 275 kts | 317° |
| 2026-05-06 03:54 | 38.39488 | -121.43975 | 7184 ft | 276 kts | 317° |
| 2026-05-06 03:55 | 38.40848 | -121.45705 | 6965 ft | 276 kts | 317° |
| 2026-05-06 03:55 | 38.42197 | -121.47423 | 6728 ft | 272 kts | 316° |
| 2026-05-06 03:55 | 38.43529 | -121.49120 | 6484 ft | 268 kts | 316° |
| 2026-05-06 03:55 | 38.44842 | -121.50793 | 6227 ft | 265 kts | 316° |
| 2026-05-06 03:56 | 38.46137 | -121.52446 | 5969 ft | 262 kts | 316° |
| 2026-05-06 03:56 | 38.47418 | -121.54078 | 5741 ft | 259 kts | 317° |
| 2026-05-06 03:56 | 38.48790 | -121.55569 | 5580 ft | 260 kts | 323° |
| 2026-05-06 03:56 | 38.50230 | -121.56990 | 5414 ft | 263 kts | 323° |
| 2026-05-06 03:57 | 38.51687 | -121.58421 | 5243 ft | 264 kts | 323° |
| 2026-05-06 03:57 | 38.52668 | -121.59393 | 5119 ft | 265 kts | 323° |
| 2026-05-06 03:57 | 38.54577 | -121.61300 | 4898 ft | 260 kts | 322° |
| 2026-05-06 03:57 | 38.55981 | -121.62712 | 4689 ft | 254 kts | 322° |
| 2026-05-06 03:58 | 38.57355 | -121.64094 | 4508 ft | 249 kts | 322° |
| 2026-05-06 03:58 | 38.58798 | -121.65275 | 4307 ft | 246 kts | 339° |
| 2026-05-06 03:58 | 38.60426 | -121.65894 | 4149 ft | 244 kts | 344° |
| 2026-05-06 03:58 | 38.62079 | -121.66490 | 4052 ft | 248 kts | 344° |
| 2026-05-06 03:59 | 38.63203 | -121.66904 | 4024 ft | 250 kts | 343° |
| 2026-05-06 03:59 | 38.64880 | -121.67533 | 4015 ft | 252 kts | 343° |
| 2026-05-06 03:59 | 38.66537 | -121.68163 | 4010 ft | 251 kts | 343° |
| 2026-05-06 03:59 | 38.68209 | -121.68803 | 3981 ft | 243 kts | 342° |
| 2026-05-06 04:00 | 38.69807 | -121.69418 | 3979 ft | 238 kts | 343° |
| 2026-05-06 04:00 | 38.71386 | -121.70018 | 3983 ft | 236 kts | 345° |
| 2026-05-06 04:00 | 38.72994 | -121.70239 | 3998 ft | 235 kts | 359° |
| 2026-05-06 04:00 | 38.74631 | -121.70289 | 3990 ft | 236 kts | 358° |
| 2026-05-06 04:01 | 38.76268 | -121.70346 | 3991 ft | 236 kts | 358° |
| 2026-05-06 04:01 | 38.77908 | -121.70404 | 3931 ft | 238 kts | 358° |
| 2026-05-06 04:01 | 38.79590 | -121.70465 | 3609 ft | 243 kts | 358° |
| 2026-05-06 04:01 | 38.81282 | -121.70530 | 3322 ft | 244 kts | 358° |
| 2026-05-06 04:02 | 38.83006 | -121.70600 | 3050 ft | 244 kts | 358° |
| 2026-05-06 04:02 | 38.84654 | -121.70670 | 2992 ft | 235 kts | 358° |
| 2026-05-06 04:02 | 38.86269 | -121.70747 | 2980 ft | 230 kts | 358° |
| 2026-05-06 04:02 | 38.87843 | -121.70825 | 2982 ft | 224 kts | 358° |
| 2026-05-06 04:03 | 38.89358 | -121.70531 | 2966 ft | 221 kts | 32° |
| 2026-05-06 04:03 | 38.90349 | -121.69117 | 3011 ft | 214 kts | 74° |
| 2026-05-06 04:03 | 38.90338 | -121.67286 | 3013 ft | 205 kts | 116° |
| 2026-05-06 04:03 | 38.89665 | -121.65752 | 2994 ft | 191 kts | 123° |
| 2026-05-06 04:04 | 38.89006 | -121.64313 | 2980 ft | 185 kts | 122° |
| 2026-05-06 04:04 | 38.88324 | -121.62845 | 3009 ft | 197 kts | 122° |
| 2026-05-06 04:04 | 38.87537 | -121.61395 | 2986 ft | 199 kts | 136° |
| 2026-05-06 04:04 | 38.86375 | -121.60539 | 3003 ft | 188 kts | 159° |
| 2026-05-06 04:05 | 38.85178 | -121.59949 | 2974 ft | 180 kts | 168° |
| 2026-05-06 04:05 | 38.83966 | -121.59918 | 2991 ft | 172 kts | 181° |
| 2026-05-06 04:05 | 38.82766 | -121.59923 | 2814 ft | 178 kts | 179° |
| 2026-05-06 04:05 | 38.81503 | -121.59931 | 2383 ft | 184 kts | 180° |
| 2026-05-06 04:06 | 38.80215 | -121.59949 | 1968 ft | 183 kts | 180° |
| 2026-05-06 04:06 | 38.78994 | -121.59970 | 1711 ft | 166 kts | 180° |
| 2026-05-06 04:06 | 38.77891 | -121.59989 | 1461 ft | 151 kts | 181° |
| 2026-05-06 04:06 | 38.76886 | -121.60006 | 1255 ft | 139 kts | 180° |
| 2026-05-06 04:07 | 38.75921 | -121.60022 | 1092 ft | 139 kts | 180° |
| 2026-05-06 04:07 | 38.74958 | -121.60038 | 900 ft | 138 kts | 180° |
| 2026-05-06 04:07 | 38.74007 | -121.60054 | 718 ft | 133 kts | 180° |
| 2026-05-06 04:07 | 38.73088 | -121.60069 | 539 ft | 132 kts | 180° |
| 2026-05-06 04:08 | 38.72153 | -121.60082 | 338 ft | 136 kts | 180° |
| 2026-05-06 04:08 | 38.71216 | -121.60101 | 170 ft | 134 kts | 181° |
| 2026-05-06 04:08 | 38.70294 | -121.60117 | 37 ft | 128 kts | 181° |
| 2026-05-06 04:08 | 38.69522 | -121.60131 | 21 ft | 65 kts | 180° |
| 2026-05-06 04:09 | 38.69164 | -121.60136 | 23 ft | 35 kts | 180° |
| 2026-05-06 04:09 | 38.69061 | -121.59972 | 22 ft | 26 kts | 84° |
| 2026-05-06 04:09 | 38.69181 | -121.59878 | 22 ft | 24 kts | 4° |
| 2026-05-06 04:09 | 38.69384 | -121.59867 | 24 ft | 34 kts | 0° |
| 2026-05-06 04:10 | 38.69635 | -121.59865 | 22 ft | 31 kts | 7° |
| 2026-05-06 04:10 | 38.69704 | -121.59688 | 22 ft | 23 kts | 92° |
| 2026-05-06 04:10 | 38.69696 | -121.59490 | 22 ft | 22 kts | 94° |
| 2026-05-06 04:10 | 38.69689 | -121.59297 | 22 ft | 21 kts | 93° |
| 2026-05-06 04:11 | 38.69679 | -121.59109 | 22 ft | 21 kts | 95° |
| 2026-05-06 04:11 | 38.69656 | -121.58985 | 24 ft | 1 kts | 143° |
| 2026-05-06 04:11 | 38.69599 | -121.58968 | 22 ft | 13 kts | 192° |
| 2026-05-06 04:11 | 38.69559 | -121.59054 | 22 ft | 12 kts | 268° |
| 2026-05-06 04:12 | 38.69559 | -121.59072 | 22 ft | 0 kts | 268° |